Terminal Aerodrome Forecast
Issued by NWS Nashville, TN

Current Version | Previous Version | Text Only | Print | Product List | Glossary On
Versions: 1 2 3 4 5 6 7 8 9 10 11 12 13 14 15 16 17 18 19 20 21 22
000
FTUS44 KOHX 121909 AAA
TAFBNA
TAF AMD
KBNA 121909Z 1219/1318 34014G22KT P6SM SCT040
     FM122000 31013G20KT P6SM SKC
     FM130000 31008KT P6SM SKC
     FM130900 22004KT P6SM SKC
     FM131600 20010G15KT P6SM SKC=

USA.gov is the U.S. government's official web portal to all federal, state and local government web resources and services.